createdAt,value
2022-08-18T00:02:11.139Z,46.50
2022-08-18T00:04:49.206Z,46.90
2022-08-18T00:07:28.914Z,46.60
2022-08-18T00:09:56.009Z,47.10
2022-08-18T00:12:32.671Z,46.80
2022-08-18T00:15:05.182Z,47.00
2022-08-18T00:17:34.313Z,46.80
2022-08-18T00:20:01.508Z,46.90
2022-08-18T00:22:28.835Z,46.90
2022-08-18T00:24:57.098Z,47.10
2022-08-18T00:27:28.765Z,47.10
2022-08-18T00:29:58.085Z,47.30
2022-08-18T00:32:28.939Z,47.40
2022-08-18T00:34:56.305Z,47.30
2022-08-18T00:37:24.106Z,47.30
2022-08-18T00:39:52.665Z,47.40
2022-08-18T00:42:30.710Z,47.50
2022-08-18T00:45:01.630Z,47.70
2022-08-18T00:47:36.402Z,47.60
2022-08-18T00:50:15.464Z,47.60
2022-08-18T00:52:47.883Z,47.60
2022-08-18T00:55:17.863Z,47.60
2022-08-18T00:57:46.190Z,47.60
2022-08-18T01:00:14.074Z,47.70
2022-08-18T01:02:49.750Z,47.70
2022-08-18T01:05:33.871Z,48.00
2022-08-18T01:08:01.165Z,48.10
2022-08-18T01:10:28.246Z,47.80
2022-08-18T01:12:57.487Z,47.80
2022-08-18T01:15:28.887Z,48.00
2022-08-18T01:18:17.277Z,48.10
2022-08-18T01:21:26.963Z,48.10
2022-08-18T01:23:54.886Z,48.10
2022-08-18T01:26:24.208Z,48.00
2022-08-18T01:28:52.423Z,48.10
2022-08-18T01:31:38.099Z,48.10
2022-08-18T01:34:10.519Z,48.50
2022-08-18T01:36:40.507Z,48.30
2022-08-18T01:39:12.720Z,48.30
2022-08-18T01:41:40.700Z,48.40
2022-08-18T01:44:11.167Z,48.40
2022-08-18T01:46:41.569Z,48.40
2022-08-18T01:49:10.459Z,48.50
2022-08-18T01:51:41.411Z,48.60
2022-08-18T01:54:12.546Z,48.60
2022-08-18T01:56:42.334Z,48.70
2022-08-18T01:59:14.518Z,48.70
2022-08-18T02:01:50.331Z,48.70
2022-08-18T02:04:35.686Z,48.90
2022-08-18T02:07:07.411Z,48.80
2022-08-18T02:09:34.781Z,48.80
2022-08-18T02:12:01.670Z,48.80
2022-08-18T02:14:31.086Z,48.90
2022-08-18T02:17:01.621Z,49.00
2022-08-18T02:19:35.167Z,49.10
2022-08-18T02:22:02.662Z,49.20
2022-08-18T02:24:29.402Z,49.10
2022-08-18T02:26:56.676Z,49.10
2022-08-18T02:29:23.458Z,49.20
2022-08-18T02:31:50.603Z,49.20
2022-08-18T02:34:18.119Z,49.30
2022-08-18T02:36:45.627Z,49.30
2022-08-18T02:39:12.381Z,49.30
2022-08-18T02:41:39.451Z,49.40
2022-08-18T02:44:07.973Z,49.30
2022-08-18T02:46:35.738Z,49.40
2022-08-18T02:49:03.795Z,49.40
2022-08-18T02:51:30.909Z,49.50
2022-08-18T02:54:00.596Z,49.60
2022-08-18T02:56:40.812Z,49.60
2022-08-18T02:59:11.236Z,49.60
2022-08-18T03:01:40.612Z,49.80
2022-08-18T03:04:10.091Z,49.70
2022-08-18T03:06:38.121Z,49.80
2022-08-18T03:09:10.059Z,49.80
2022-08-18T03:11:38.047Z,50.00
2022-08-18T03:14:06.300Z,49.90
2022-08-18T03:16:40.417Z,49.90
2022-08-18T03:19:20.230Z,50.00
2022-08-18T03:21:48.228Z,49.90
2022-08-18T03:24:19.685Z,50.00
2022-08-18T03:26:50.500Z,50.10
2022-08-18T03:29:17.677Z,50.20
2022-08-18T03:31:45.382Z,50.20
2022-08-18T03:34:12.959Z,50.30
2022-08-18T03:36:40.327Z,50.40
2022-08-18T03:39:11.001Z,50.50
2022-08-18T03:41:57.564Z,50.60
2022-08-18T03:44:27.804Z,50.50
2022-08-18T03:46:54.627Z,50.40
2022-08-18T03:49:21.515Z,50.50
2022-08-18T03:51:48.866Z,50.50
2022-08-18T03:54:17.989Z,50.50
2022-08-18T03:56:47.165Z,50.60
2022-08-18T03:59:20.772Z,50.70
2022-08-18T04:01:50.594Z,50.70
2022-08-18T04:04:23.373Z,50.70
2022-08-18T04:06:54.365Z,50.80
2022-08-18T04:09:24.521Z,50.90
2022-08-18T04:11:51.719Z,51.00
2022-08-18T04:14:21.529Z,51.00
2022-08-18T04:16:49.309Z,51.20
2022-08-18T04:19:26.347Z,51.10
2022-08-18T04:21:54.486Z,51.20
2022-08-18T04:24:21.468Z,51.20
2022-08-18T04:26:49.907Z,51.10
2022-08-18T04:29:21.138Z,51.20
2022-08-18T04:31:49.224Z,51.20
2022-08-18T04:34:16.415Z,51.20
2022-08-18T04:36:43.694Z,51.20
2022-08-18T04:39:11.906Z,51.30
2022-08-18T04:41:41.012Z,51.30
2022-08-18T04:44:12.027Z,51.40
2022-08-18T04:46:46.356Z,51.50
2022-08-18T04:49:14.109Z,51.60
2022-08-18T04:52:34.562Z,51.60
2022-08-18T04:54:53.425Z,51.70
2022-08-18T04:57:21.088Z,51.60
2022-08-18T04:59:50.253Z,51.80
2022-08-18T05:02:18.429Z,51.80
2022-08-18T05:04:48.358Z,51.80
2022-08-18T05:07:19.241Z,51.90
2022-08-18T05:09:46.934Z,52.10
2022-08-18T05:12:15.347Z,52.10
2022-08-18T05:14:47.171Z,52.20
2022-08-18T05:17:16.208Z,52.20
2022-08-18T05:19:44.603Z,52.20
2022-08-18T05:22:14.552Z,52.30
2022-08-18T05:24:42.849Z,52.90
2022-08-18T05:27:09.573Z,52.50
2022-08-18T05:29:41.453Z,52.60
2022-08-18T05:32:40.981Z,52.60
2022-08-18T05:35:12.351Z,52.60
2022-08-18T05:37:54.272Z,53.00
2022-08-18T05:40:25.059Z,52.90
2022-08-18T05:42:52.063Z,52.80
2022-08-18T05:45:20.285Z,52.70
2022-08-18T05:47:47.177Z,52.90
2022-08-18T05:50:18.640Z,52.80
2022-08-18T05:52:58.403Z,52.90
2022-08-18T05:55:52.541Z,53.20
2022-08-18T05:58:33.108Z,53.20
2022-08-18T06:01:18.139Z,53.00
2022-08-18T06:04:01.554Z,53.20
2022-08-18T06:06:30.468Z,53.20
2022-08-18T06:09:28.282Z,52.90
2022-08-18T06:12:05.218Z,53.50
2022-08-18T06:14:31.982Z,53.10
2022-08-18T06:17:32.050Z,53.40
2022-08-18T06:20:10.782Z,53.50
2022-08-18T06:23:24.212Z,53.20
2022-08-18T06:26:10.490Z,53.50
2022-08-18T06:28:52.434Z,53.50
2022-08-18T06:31:41.122Z,53.40
2022-08-18T06:34:21.349Z,53.50
2022-08-18T06:36:58.827Z,53.30
2022-08-18T06:39:48.897Z,53.40
2022-08-18T06:42:25.939Z,53.60
2022-08-18T06:44:58.259Z,53.40
2022-08-18T06:48:03.322Z,53.40
2022-08-18T06:50:43.555Z,53.80
2022-08-18T06:53:27.090Z,53.50
2022-08-18T06:55:55.957Z,53.40
2022-08-18T06:58:30.209Z,53.50
2022-08-18T07:01:01.465Z,53.60
2022-08-18T07:03:46.034Z,53.70
2022-08-18T07:06:21.702Z,53.90
2022-08-18T07:08:51.462Z,53.90
2022-08-18T07:11:25.084Z,53.80
2022-08-18T07:14:15.042Z,53.90
2022-08-18T07:16:59.779Z,54.00
2022-08-18T07:19:31.032Z,54.40
2022-08-18T07:22:17.834Z,54.10
2022-08-18T07:24:49.212Z,54.20
2022-08-18T07:27:18.918Z,54.10
2022-08-18T07:30:07.359Z,54.20
2022-08-18T07:32:46.147Z,54.40
2022-08-18T07:35:18.036Z,54.40
2022-08-18T07:38:40.857Z,54.40
2022-08-18T07:41:14.231Z,54.50
2022-08-18T07:43:53.288Z,54.30
2022-08-18T07:46:28.893Z,54.10
2022-08-18T07:48:56.394Z,53.90
2022-08-18T07:51:47.433Z,53.80
2022-08-18T07:54:45.381Z,53.60
2022-08-18T07:57:28.411Z,53.50
2022-08-18T08:00:17.413Z,53.40
2022-08-18T08:02:59.606Z,53.30
2022-08-18T08:05:53.904Z,53.20
2022-08-18T08:08:39.750Z,53.10
2022-08-18T08:11:35.721Z,53.10
2022-08-18T08:14:48.337Z,53.10
2022-08-18T08:17:32.543Z,53.00
2022-08-18T08:20:32.765Z,52.90
2022-08-18T08:23:17.892Z,52.80
2022-08-18T08:26:23.630Z,52.70
2022-08-18T08:29:05.315Z,52.70
2022-08-18T08:31:44.262Z,52.60
2022-08-18T08:34:41.689Z,52.60
2022-08-18T08:37:19.396Z,52.70
2022-08-18T08:39:57.921Z,52.40
2022-08-18T08:42:36.336Z,52.50
2022-08-18T08:45:29.551Z,52.50
2022-08-18T08:48:09.883Z,52.50
2022-08-18T08:50:46.826Z,52.50
2022-08-18T08:53:29.055Z,52.60
2022-08-18T08:56:02.702Z,52.60
2022-08-18T08:58:41.365Z,52.50
2022-08-18T09:01:14.336Z,52.60
2022-08-18T09:03:59.701Z,52.60
2022-08-18T09:06:46.074Z,52.70
2022-08-18T09:09:51.935Z,52.70
2022-08-18T09:12:37.241Z,52.60
2022-08-18T09:15:25.378Z,52.80
2022-08-18T09:18:08.583Z,52.70
2022-08-18T09:20:58.209Z,52.60
2022-08-18T09:23:32.119Z,52.60
2022-08-18T09:26:20.418Z,52.50
2022-08-18T09:28:59.565Z,52.50
2022-08-18T09:31:31.818Z,52.50
2022-08-18T09:34:11.046Z,52.50
2022-08-18T09:36:48.602Z,52.50
2022-08-18T09:39:40.572Z,52.60
2022-08-18T09:42:29.915Z,52.70
2022-08-18T09:45:00.897Z,52.80
2022-08-18T09:47:27.637Z,52.80
2022-08-18T09:50:06.128Z,52.80
2022-08-18T09:52:37.609Z,52.70
2022-08-18T09:55:28.940Z,52.70
2022-08-18T09:58:20.110Z,52.60
2022-08-18T10:01:28.846Z,52.50
2022-08-18T10:07:32.014Z,52.50
2022-08-18T10:11:01.607Z,51.90
2022-08-18T10:13:33.109Z,51.90
2022-08-18T10:16:38.268Z,51.80
2022-08-18T10:19:39.814Z,51.70
2022-08-18T10:22:10.726Z,51.60
2022-08-18T10:24:47.015Z,51.60
2022-08-18T10:27:49.032Z,51.50
2022-08-18T10:30:34.273Z,51.40
2022-08-18T10:33:17.775Z,51.40
2022-08-18T10:35:58.686Z,51.50
2022-08-18T10:41:25.967Z,51.40
2022-08-18T10:43:57.875Z,51.30
2022-08-18T10:46:32.556Z,51.30
2022-08-18T10:49:09.373Z,51.20
2022-08-18T10:54:59.095Z,51.10
2022-08-18T10:57:54.549Z,50.90
2022-08-18T11:00:22.668Z,51.00
2022-08-18T11:06:18.010Z,51.20
2022-08-18T11:08:55.382Z,52.60
2022-08-18T11:11:39.338Z,53.50
2022-08-18T11:14:37.062Z,53.90
2022-08-18T11:17:12.339Z,52.20
2022-08-18T11:19:45.065Z,50.90
2022-08-18T11:25:32.480Z,47.50
2022-08-18T11:28:01.466Z,47.50
2022-08-18T11:30:44.115Z,47.80
2022-08-18T11:33:23.078Z,46.90
2022-08-18T11:35:57.933Z,47.30
2022-08-18T11:41:23.143Z,47.30
2022-08-18T11:43:57.861Z,47.00
2022-08-18T11:46:38.808Z,46.10
2022-08-18T11:49:33.911Z,46.30
2022-08-18T11:52:15.250Z,46.30
2022-08-18T11:54:50.680Z,46.80
2022-08-18T11:57:46.373Z,46.60
2022-08-18T12:00:43.307Z,46.60
2022-08-18T12:03:28.779Z,46.30
2022-08-18T12:06:19.041Z,46.40
2022-08-18T12:08:59.065Z,46.30
2022-08-18T12:12:00.986Z,46.20
2022-08-18T12:14:35.214Z,46.10
2022-08-18T12:17:04.729Z,46.50
2022-08-18T12:19:34.436Z,45.70
2022-08-18T12:22:10.955Z,45.90
2022-08-18T12:24:39.260Z,46.00
2022-08-18T12:27:12.543Z,46.10
2022-08-18T12:29:53.137Z,46.30
2022-08-18T12:35:11.867Z,46.50
2022-08-18T12:37:58.903Z,46.60
2022-08-18T12:40:26.767Z,46.60
2022-08-18T12:42:55.737Z,46.80
2022-08-18T12:45:23.376Z,46.70
2022-08-18T12:47:52.703Z,46.50
2022-08-18T12:50:19.802Z,46.70
2022-08-18T12:52:46.975Z,46.60
2022-08-18T12:55:21.257Z,46.70
2022-08-18T13:00:37.209Z,46.30
2022-08-18T13:03:04.183Z,46.10
2022-08-18T13:05:31.181Z,46.00
2022-08-18T13:08:04.381Z,45.60
2022-08-18T13:10:42.849Z,45.60
2022-08-18T13:13:18.494Z,45.60
2022-08-18T13:15:57.980Z,45.60
2022-08-18T13:18:28.666Z,45.70
2022-08-18T13:20:57.672Z,45.60
2022-08-18T13:23:27.630Z,45.80
2022-08-18T13:25:59.378Z,46.30
2022-08-18T13:28:35.844Z,45.60
2022-08-18T13:31:16.928Z,45.20
2022-08-18T13:33:56.992Z,45.20
2022-08-18T13:36:44.265Z,44.90
2022-08-18T13:39:22.898Z,44.50
2022-08-18T13:41:52.994Z,43.50
2022-08-18T13:44:22.529Z,44.00
2022-08-18T13:46:55.509Z,43.90
2022-08-18T13:49:30.330Z,43.80
2022-08-18T13:52:00.322Z,43.50
2022-08-18T13:54:34.026Z,43.30
2022-08-18T13:57:03.208Z,43.10
2022-08-18T13:59:33.147Z,43.00
2022-08-18T14:02:05.838Z,42.90
2022-08-18T14:04:36.299Z,42.50
2022-08-18T14:07:09.192Z,42.70
2022-08-18T14:09:37.995Z,42.60
2022-08-18T14:12:15.910Z,42.50
2022-08-18T14:14:52.020Z,42.20
2022-08-18T14:17:22.598Z,41.90
2022-08-18T14:20:10.695Z,41.70
2022-08-18T14:23:01.508Z,41.30
2022-08-18T14:25:49.315Z,41.40
2022-08-18T14:28:19.577Z,41.60
2022-08-18T14:30:54.674Z,41.60
2022-08-18T14:33:34.589Z,41.50
2022-08-18T14:36:10.940Z,41.00
2022-08-18T14:38:38.486Z,40.90
2022-08-18T14:41:08.867Z,40.50
2022-08-18T14:44:10.336Z,40.20
2022-08-18T14:46:23.633Z,40.30
2022-08-18T14:48:57.601Z,40.20
2022-08-18T14:51:27.283Z,40.00
2022-08-18T14:53:55.695Z,39.90
2022-08-18T14:56:23.425Z,40.00
2022-08-18T14:58:55.378Z,40.30
2022-08-18T15:01:23.241Z,40.00
2022-08-18T15:03:50.779Z,40.00
2022-08-18T15:06:23.025Z,40.00
2022-08-18T15:08:57.036Z,40.00
2022-08-18T15:11:24.574Z,40.10
2022-08-18T15:13:51.713Z,39.80
2022-08-18T15:16:23.037Z,39.90
2022-08-18T15:18:58.792Z,39.70
2022-08-18T15:21:43.921Z,39.80
2022-08-18T15:24:29.653Z,39.70
2022-08-18T15:27:06.166Z,39.70
2022-08-18T15:29:37.117Z,39.70
2022-08-18T15:32:10.621Z,39.70
2022-08-18T15:34:46.107Z,39.70
2022-08-18T15:37:19.786Z,40.30
2022-08-18T15:39:55.563Z,39.90
2022-08-18T15:42:23.405Z,40.00
2022-08-18T15:44:52.610Z,40.00
2022-08-18T15:47:21.019Z,40.00
2022-08-18T15:49:48.494Z,40.00
2022-08-18T15:52:17.635Z,40.00
2022-08-18T15:54:51.039Z,39.80
2022-08-18T15:57:38.441Z,39.70
2022-08-18T16:00:06.745Z,39.50
2022-08-18T16:02:40.059Z,39.40
2022-08-18T16:05:10.196Z,39.30
2022-08-18T16:07:40.978Z,39.10
2022-08-18T16:10:12.747Z,39.20
2022-08-18T16:12:45.630Z,39.30
2022-08-18T16:15:21.116Z,39.30
2022-08-18T16:17:50.427Z,39.10
2022-08-18T16:20:18.913Z,39.20
2022-08-18T16:22:46.977Z,39.20
2022-08-18T16:25:14.452Z,39.70
2022-08-18T16:27:41.999Z,39.40
2022-08-18T16:30:15.731Z,39.40
2022-08-18T16:32:43.453Z,39.40
2022-08-18T16:35:11.030Z,39.40
2022-08-18T16:37:38.328Z,39.40
2022-08-18T16:40:06.126Z,39.40
2022-08-18T16:42:32.922Z,39.40
2022-08-18T16:45:00.789Z,39.30
2022-08-18T16:47:28.042Z,39.30
2022-08-18T16:49:58.635Z,39.20
2022-08-18T16:52:27.649Z,39.10
2022-08-18T16:54:57.917Z,39.10
2022-08-18T16:57:53.219Z,39.00
2022-08-18T17:00:42.050Z,39.00
2022-08-18T17:03:28.215Z,39.00
2022-08-18T17:06:00.981Z,39.00
2022-08-18T17:08:28.445Z,38.90
2022-08-18T17:10:55.304Z,39.00
2022-08-18T17:13:23.249Z,39.00
2022-08-18T17:15:50.531Z,39.00
2022-08-18T17:18:17.773Z,39.10
2022-08-18T17:20:44.554Z,39.10
2022-08-18T17:23:11.213Z,39.20
2022-08-18T17:25:38.643Z,39.20
2022-08-18T17:28:09.973Z,39.20
2022-08-18T17:30:46.273Z,39.30
2022-08-18T17:33:19.364Z,39.30
2022-08-18T17:35:47.540Z,39.40
2022-08-18T17:38:27.209Z,39.40
2022-08-18T17:40:57.106Z,39.60
2022-08-18T17:43:29.214Z,39.60
2022-08-18T17:46:01.113Z,39.60
2022-08-18T17:48:33.592Z,39.60
2022-08-18T17:51:34.735Z,39.60
2022-08-18T17:54:37.022Z,40.10
2022-08-18T17:57:35.136Z,39.80
2022-08-18T18:00:15.697Z,39.80
2022-08-18T18:02:48.090Z,39.90
2022-08-18T18:05:19.179Z,39.90
2022-08-18T18:07:52.118Z,39.90
2022-08-18T18:10:51.022Z,40.10
2022-08-18T18:13:24.261Z,40.20
2022-08-18T18:16:01.009Z,40.10
2022-08-18T18:18:31.334Z,40.10
2022-08-18T18:21:02.910Z,40.10
2022-08-18T18:23:41.945Z,40.10
2022-08-18T18:26:20.293Z,40.10
2022-08-18T18:28:47.201Z,40.20
2022-08-18T18:31:20.986Z,40.10
2022-08-18T18:34:00.395Z,40.20
2022-08-18T18:36:42.937Z,40.40
2022-08-18T18:39:33.199Z,40.40
2022-08-18T18:42:19.357Z,40.60
2022-08-18T18:44:54.762Z,40.50
2022-08-18T18:47:49.730Z,40.60
2022-08-18T18:50:26.749Z,40.70
2022-08-18T18:53:12.396Z,40.70
2022-08-18T18:55:54.587Z,40.90
2022-08-18T18:58:53.255Z,41.00
2022-08-18T19:01:38.645Z,41.00
2022-08-18T19:04:13.341Z,41.00
2022-08-18T19:07:07.915Z,41.00
2022-08-18T19:09:48.565Z,41.30
2022-08-18T19:12:33.269Z,41.20
2022-08-18T19:15:11.521Z,41.40
2022-08-18T19:17:51.084Z,41.40
2022-08-18T19:20:25.166Z,41.40
2022-08-18T19:22:54.222Z,41.50
2022-08-18T19:25:23.229Z,41.40
2022-08-18T19:28:03.921Z,41.60
2022-08-18T19:30:34.263Z,41.80
2022-08-18T19:33:04.298Z,41.80
2022-08-18T19:35:59.161Z,41.80
2022-08-18T19:38:33.757Z,42.00
2022-08-18T19:41:19.814Z,42.40
2022-08-18T19:43:59.249Z,41.90
2022-08-18T19:46:45.037Z,42.10
2022-08-18T19:49:38.474Z,42.30
2022-08-18T19:52:46.870Z,42.30
2022-08-18T19:55:36.559Z,42.20
2022-08-18T19:58:29.691Z,42.40
2022-08-18T20:01:21.012Z,42.30
2022-08-18T20:04:04.998Z,42.50
2022-08-18T20:06:50.921Z,42.50
2022-08-18T20:09:32.658Z,42.60
2022-08-18T20:12:03.038Z,42.70
2022-08-18T20:14:35.669Z,42.50
2022-08-18T20:17:12.862Z,42.70
2022-08-18T20:19:44.242Z,42.90
2022-08-18T20:22:22.113Z,42.80
2022-08-18T20:24:59.475Z,43.00
2022-08-18T20:27:37.158Z,43.10
2022-08-18T20:30:30.544Z,43.10
2022-08-18T20:33:20.592Z,43.30
2022-08-18T20:35:54.789Z,43.20
2022-08-18T20:38:28.729Z,43.20
2022-08-18T20:40:55.971Z,43.40
2022-08-18T20:43:34.865Z,43.30
2022-08-18T20:46:15.553Z,43.60
2022-08-18T20:49:13.433Z,43.70
2022-08-18T20:52:06.511Z,43.80
2022-08-18T20:55:11.747Z,43.90
2022-08-18T20:57:40.171Z,44.00
2022-08-18T21:00:15.453Z,43.60
2022-08-18T21:02:58.815Z,43.80
2022-08-18T21:05:34.438Z,44.30
2022-08-18T21:08:15.890Z,44.30
2022-08-18T21:11:06.714Z,44.40
2022-08-18T21:13:42.388Z,44.40
2022-08-18T21:16:33.728Z,44.30
2022-08-18T21:19:23.466Z,44.40
2022-08-18T21:22:02.514Z,44.80
2022-08-18T21:24:41.535Z,44.90
2022-08-18T21:27:31.410Z,44.90
2022-08-18T21:30:03.329Z,45.20
2022-08-18T21:32:33.142Z,44.80
2022-08-18T21:35:05.798Z,44.80
2022-08-18T21:37:34.732Z,44.90
2022-08-18T21:40:04.542Z,44.90
2022-08-18T21:42:37.546Z,45.10
2022-08-18T21:45:04.718Z,45.30
2022-08-18T21:47:34.252Z,45.10
2022-08-18T21:50:17.984Z,45.30
2022-08-18T21:52:53.066Z,45.70
2022-08-18T21:55:45.053Z,45.50
2022-08-18T21:58:17.763Z,45.90
2022-08-18T22:01:07.188Z,45.40
2022-08-18T22:03:50.034Z,46.10
2022-08-18T22:06:30.710Z,45.70
2022-08-18T22:09:21.013Z,46.00
2022-08-18T22:12:07.087Z,45.90
2022-08-18T22:14:55.084Z,45.80
2022-08-18T22:17:34.854Z,46.10
2022-08-18T22:20:39.415Z,46.30
2022-08-18T22:23:31.647Z,46.60
2022-08-18T22:26:20.389Z,46.40
2022-08-18T22:29:16.600Z,46.90
2022-08-18T22:31:46.638Z,46.80
2022-08-18T22:34:17.473Z,46.50
2022-08-18T22:37:04.051Z,46.60
2022-08-18T22:39:52.310Z,47.40
2022-08-18T22:42:25.654Z,46.80
2022-08-18T22:44:53.481Z,46.70
2022-08-18T22:47:20.825Z,46.80
2022-08-18T22:49:48.064Z,46.90
2022-08-18T22:52:29.883Z,46.90
2022-08-18T22:55:02.710Z,47.20
2022-08-18T22:57:36.432Z,47.00
2022-08-18T23:00:17.151Z,47.10
2022-08-18T23:03:06.953Z,47.50
2022-08-18T23:05:34.146Z,47.70
2022-08-18T23:08:02.494Z,47.20
2022-08-18T23:10:29.496Z,47.30
2022-08-18T23:12:57.388Z,47.50
2022-08-18T23:15:47.508Z,47.50
2022-08-18T23:18:19.122Z,47.50
2022-08-18T23:20:51.890Z,47.50
2022-08-18T23:23:20.993Z,47.80
2022-08-18T23:25:50.365Z,47.70
2022-08-18T23:28:19.281Z,47.70
2022-08-18T23:30:48.754Z,47.80
2022-08-18T23:33:16.056Z,47.90
2022-08-18T23:35:43.569Z,48.00
2022-08-18T23:38:12.473Z,48.10
2022-08-18T23:40:43.996Z,48.10
2022-08-18T23:43:11.096Z,48.20
2022-08-18T23:45:39.545Z,48.10
2022-08-18T23:48:08.483Z,48.20
2022-08-18T23:50:40.246Z,48.20
2022-08-18T23:53:08.539Z,48.30
2022-08-18T23:55:35.501Z,48.40
2022-08-18T23:58:02.381Z,48.40
